createdAt,value
2022-08-05T00:11:04.692Z,27.9
2022-08-05T00:34:20.249Z,27.4
2022-08-05T01:05:43.718Z,26.9
2022-08-05T01:21:02.872Z,26.6
2022-08-05T01:59:49.138Z,25.9
2022-08-05T02:15:08.302Z,25.7
2022-08-05T02:38:24.106Z,25.3
2022-08-05T03:17:33.076Z,24.9
2022-08-05T03:48:22.871Z,24.6
2022-08-05T04:03:56.866Z,24.5
2022-08-05T04:42:51.134Z,24.2
2022-08-05T05:13:29.653Z,24
2022-08-05T05:36:45.335Z,24
2022-08-05T05:52:38.370Z,24.1
2022-08-05T06:31:01.663Z,24.4
2022-08-05T06:39:09.478Z,24.4
2022-08-05T07:10:10.163Z,24.6
2022-08-05T07:40:59.294Z,25.1
2022-08-05T08:11:48.483Z,25.5
2022-08-05T08:35:03.819Z,25.7
2022-08-05T09:06:04.033Z,26.2
2022-08-05T09:21:34.041Z,26.5
2022-08-05T09:37:26.611Z,26.9
2022-08-05T10:16:11.507Z,27.7
2022-08-05T10:31:41.483Z,28
2022-08-05T10:46:48.913Z,28.1
2022-08-05T11:10:03.997Z,28.2
2022-08-05T11:41:26.482Z,28.5
2022-08-05T11:49:00.146Z,28.5
2022-08-05T12:27:44.892Z,29
2022-08-05T12:43:03.342Z,29.3
2022-08-05T12:58:48.018Z,29.6
2022-08-05T13:37:16.674Z,31
2022-08-05T13:45:01.244Z,31.4
2022-08-05T14:00:41.551Z,32.4
2022-08-05T14:16:21.341Z,34.1
2022-08-05T14:54:39.254Z,38.6
2022-08-05T15:10:08.706Z,38.2
2022-08-05T15:33:45.924Z,37.1
2022-08-05T16:12:30.463Z,35.5
2022-08-05T16:35:45.294Z,34.6
2022-08-05T16:58:37.567Z,33.9
2022-08-05T17:29:37.573Z,32.8
2022-08-05T17:45:19.030Z,32.2
2022-08-05T18:16:08.195Z,30.9
2022-08-05T18:55:05.381Z,29.5
2022-08-05T19:33:39.997Z,28.3
2022-08-05T20:12:37.267Z,27.3
2022-08-05T20:35:52.871Z,26.8
2022-08-05T21:07:05.077Z,26.2
2022-08-05T21:37:43.572Z,25.5
2022-08-05T21:45:40.162Z,25.3
2022-08-05T22:08:56.054Z,24.9
2022-08-05T22:32:23.289Z,24.4
2022-08-05T23:10:58.549Z,23.8
2022-08-05T23:34:25.831Z,23.5
2022-08-05T23:49:33.874Z,23.4
